createdAt,value
2022-09-28T00:01:54.151Z,24
2022-09-28T00:04:25.436Z,24
2022-09-28T00:06:57.008Z,28
2022-09-28T00:09:28.911Z,33
2022-09-28T00:12:00.316Z,33
2022-09-28T00:14:30.203Z,27
2022-09-28T00:17:01.577Z,27
2022-09-28T00:19:33.427Z,23
2022-09-28T00:22:04.434Z,24
2022-09-28T00:24:35.339Z,25
2022-09-28T00:27:06.571Z,24
2022-09-28T00:29:38.920Z,22
2022-09-28T00:32:10.524Z,18
2022-09-28T00:34:42.487Z,16
2022-09-28T00:37:14.775Z,16
2022-09-28T00:39:46.247Z,15
2022-09-28T00:42:17.541Z,15
2022-09-28T00:44:48.729Z,12
2022-09-28T00:47:18.291Z,9
2022-09-28T00:49:49.395Z,5
2022-09-28T00:52:21.778Z,8
2022-09-28T00:54:53.049Z,5
2022-09-28T00:57:23.763Z,8
2022-09-28T00:59:55.527Z,4
2022-09-28T01:02:26.543Z,11
2022-09-28T01:04:58.678Z,4
2022-09-28T01:07:28.505Z,5
2022-09-28T01:09:59.731Z,7
2022-09-28T01:12:30.983Z,4
2022-09-28T01:15:02.717Z,5
2022-09-28T01:17:34.209Z,4
2022-09-28T01:20:07.061Z,5
2022-09-28T01:22:38.737Z,7
2022-09-28T01:25:09.774Z,4
2022-09-28T01:27:40.669Z,4
2022-09-28T01:30:11.959Z,4
2022-09-28T01:32:43.145Z,4
2022-09-28T01:35:14.236Z,5
2022-09-28T01:37:45.368Z,5
2022-09-28T01:40:17.336Z,8
2022-09-28T01:42:48.549Z,4
2022-09-28T01:45:19.795Z,4
2022-09-28T01:47:49.288Z,7
2022-09-28T01:50:21.098Z,4
2022-09-28T01:52:51.985Z,7
2022-09-28T01:55:23.309Z,9
2022-09-28T01:57:54.658Z,8
2022-09-28T02:00:26.240Z,8
2022-09-28T02:02:57.239Z,5
2022-09-28T02:05:29.113Z,5
2022-09-28T02:08:01.686Z,6
2022-09-28T02:10:33.136Z,4
2022-09-28T02:13:04.472Z,5
2022-09-28T02:15:36.349Z,8
2022-09-28T02:18:07.409Z,5
2022-09-28T02:20:37.501Z,5
2022-09-28T02:23:08.388Z,7
2022-09-28T02:25:40.348Z,7
2022-09-28T02:28:11.501Z,7
2022-09-28T02:30:46.683Z,4
2022-09-28T02:33:18.867Z,8
2022-09-28T02:35:51.203Z,9
2022-09-28T02:38:22.528Z,8
2022-09-28T02:40:54.145Z,5
2022-09-28T02:43:26.806Z,7
2022-09-28T02:45:58.732Z,8
2022-09-28T02:48:42.979Z,7
2022-09-28T02:51:01.570Z,7
2022-09-28T02:53:31.551Z,11
2022-09-28T02:56:04.466Z,8
2022-09-28T02:58:37.036Z,8
2022-09-28T03:01:07.902Z,11
2022-09-28T03:03:39.028Z,8
2022-09-28T03:06:10.248Z,9
2022-09-28T03:08:41.395Z,12
2022-09-28T03:11:12.104Z,7
2022-09-28T03:13:43.273Z,8
2022-09-28T03:16:16.608Z,7
2022-09-28T03:18:47.351Z,8
2022-09-28T03:21:19.510Z,10
2022-09-28T03:23:51.905Z,8
2022-09-28T03:26:23.334Z,8
2022-09-28T03:28:54.637Z,9
2022-09-28T03:31:25.841Z,13
2022-09-28T03:33:58.336Z,8
2022-09-28T03:36:30.883Z,8
2022-09-28T03:39:01.772Z,8
2022-09-28T03:41:33.379Z,11
2022-09-28T03:44:04.200Z,12
2022-09-28T03:46:35.468Z,8
2022-09-28T03:49:06.709Z,13
2022-09-28T03:51:37.599Z,9
2022-09-28T03:54:08.895Z,16
2022-09-28T03:56:39.694Z,11
2022-09-28T03:59:10.491Z,12
2022-09-28T04:01:41.280Z,12
2022-09-28T04:04:10.454Z,13
2022-09-28T04:06:45.341Z,10
2022-09-28T04:09:17.685Z,8
2022-09-28T04:12:03.159Z,12
2022-09-28T04:14:18.336Z,11
2022-09-28T04:16:48.960Z,12
2022-09-28T04:19:19.795Z,13
2022-09-28T04:21:50.443Z,12
2022-09-28T04:24:22.140Z,12
2022-09-28T04:26:53.215Z,8
2022-09-28T04:29:25.670Z,16
2022-09-28T04:31:57.506Z,8
2022-09-28T04:34:33.220Z,16
2022-09-28T04:37:00.620Z,15
2022-09-28T04:39:31.728Z,11
2022-09-28T04:42:03.136Z,16
2022-09-28T04:44:34.134Z,15
2022-09-28T04:47:05.545Z,15
2022-09-28T04:49:36.455Z,14
2022-09-28T04:52:07.336Z,17
2022-09-28T04:54:38.800Z,17
2022-09-28T04:57:10.304Z,12
2022-09-28T04:59:40.849Z,12
2022-09-28T05:02:14.804Z,19
2022-09-28T05:04:46.079Z,17
2022-09-28T05:07:17.108Z,17
2022-09-28T05:09:48.313Z,19
2022-09-28T05:12:19.208Z,14
2022-09-28T05:14:51.680Z,15
2022-09-28T05:17:23.030Z,12
2022-09-28T05:19:53.929Z,13
2022-09-28T05:22:25.322Z,16
2022-09-28T05:24:56.837Z,11
2022-09-28T05:27:28.756Z,12
2022-09-28T05:29:59.779Z,12
2022-09-28T05:32:31.120Z,14
2022-09-28T05:35:02.124Z,13
2022-09-28T05:37:33.340Z,8
2022-09-28T05:40:04.370Z,13
2022-09-28T05:42:35.263Z,16
2022-09-28T05:45:06.561Z,16
2022-09-28T05:47:38.706Z,16
2022-09-28T05:50:10.037Z,17
2022-09-28T05:52:40.852Z,19
2022-09-28T05:55:11.743Z,19
2022-09-28T05:57:42.491Z,22
2022-09-28T06:00:13.491Z,20
2022-09-28T06:02:45.159Z,22
2022-09-28T06:05:16.001Z,20
2022-09-28T06:07:46.954Z,16
2022-09-28T06:10:17.890Z,16
2022-09-28T06:12:49.700Z,21
2022-09-28T06:15:23.860Z,19
2022-09-28T06:17:54.789Z,20
2022-09-28T06:20:25.472Z,21
2022-09-28T06:22:55.444Z,25
2022-09-28T06:25:25.125Z,19
2022-09-28T06:27:56.900Z,12
2022-09-28T06:30:28.424Z,16
2022-09-28T06:32:59.425Z,17
2022-09-28T06:35:30.197Z,13
2022-09-28T06:37:59.415Z,13
2022-09-28T06:40:30.799Z,16
2022-09-28T06:43:03.013Z,16
2022-09-28T06:45:33.821Z,16
2022-09-28T06:48:04.720Z,16
2022-09-28T06:50:37.318Z,16
2022-09-28T06:53:08.849Z,16
2022-09-28T06:55:39.786Z,15
2022-09-28T06:58:12.541Z,14
2022-09-28T07:00:43.328Z,14
2022-09-28T07:03:13.572Z,13
2022-09-28T07:05:44.304Z,20
2022-09-28T07:08:16.242Z,14
2022-09-28T07:10:47.047Z,16
2022-09-28T07:13:41.976Z,17
2022-09-28T07:15:49.742Z,12
2022-09-28T07:18:21.072Z,19
2022-09-28T07:20:54.615Z,19
2022-09-28T07:23:21.829Z,17
2022-09-28T07:25:52.664Z,20
2022-09-28T07:28:23.478Z,13
2022-09-28T07:30:54.376Z,17
2022-09-28T07:33:25.433Z,19
2022-09-28T07:36:00.943Z,20
2022-09-28T07:38:31.873Z,15
2022-09-28T07:41:03.173Z,24
2022-09-28T07:43:34.731Z,24
2022-09-28T07:46:06.743Z,28
2022-09-28T07:48:38.233Z,16
2022-09-28T07:51:09.889Z,20
2022-09-28T07:53:40.780Z,17
2022-09-28T07:56:11.482Z,20
2022-09-28T07:58:43.729Z,20
2022-09-28T08:01:14.631Z,27
2022-09-28T08:03:45.302Z,20
2022-09-28T08:06:15.760Z,19
2022-09-28T08:08:46.884Z,20
2022-09-28T08:11:17.419Z,17
2022-09-28T08:13:47.969Z,19
2022-09-28T08:16:17.492Z,30
2022-09-28T08:18:46.592Z,27
2022-09-28T08:21:17.921Z,23
2022-09-28T08:23:48.500Z,19
2022-09-28T08:26:19.412Z,23
2022-09-28T08:28:50.028Z,27
2022-09-28T08:31:19.372Z,23
2022-09-28T08:33:51.627Z,22
2022-09-28T08:36:22.484Z,22
2022-09-28T08:38:59.009Z,27
2022-09-28T08:41:30.104Z,23
2022-09-28T08:44:00.751Z,21
2022-09-28T08:46:31.233Z,20
2022-09-28T08:49:20.909Z,22
2022-09-28T08:51:33.050Z,17
2022-09-28T08:54:05.774Z,17
2022-09-28T08:56:35.083Z,16
2022-09-28T08:59:04.735Z,22
2022-09-28T09:01:37.030Z,20
2022-09-28T09:04:06.284Z,22
2022-09-28T09:06:37.456Z,21
2022-09-28T09:09:08.620Z,16
2022-09-28T09:11:40.396Z,18
2022-09-28T09:14:09.791Z,30
2022-09-28T09:16:40.957Z,12
2022-09-28T09:19:11.758Z,14
2022-09-28T09:21:44.872Z,10
2022-09-28T09:24:15.515Z,12
2022-09-28T09:26:46.394Z,11
2022-09-28T09:29:18.991Z,8
2022-09-28T09:31:50.500Z,19
2022-09-28T09:34:21.041Z,17
2022-09-28T09:37:00.139Z,12
2022-09-28T09:39:30.468Z,12
2022-09-28T09:42:01.119Z,29
2022-09-28T09:44:35.144Z,8
2022-09-28T09:47:07.162Z,17
2022-09-28T09:49:39.279Z,12
2022-09-28T09:52:10.734Z,17
2022-09-28T09:54:41.645Z,13
2022-09-28T09:57:11.990Z,9
2022-09-28T09:59:44.067Z,13
2022-09-28T10:02:15.783Z,8
2022-09-28T10:04:46.832Z,9
2022-09-28T10:07:17.800Z,11
2022-09-28T10:09:48.760Z,9
2022-09-28T10:12:19.685Z,9
2022-09-28T10:14:51.577Z,10
2022-09-28T10:17:22.333Z,7
2022-09-28T10:19:52.546Z,8
2022-09-28T10:22:23.185Z,36
2022-09-28T10:24:53.815Z,9
2022-09-28T10:27:25.103Z,6
2022-09-28T10:29:55.879Z,7
2022-09-28T10:32:28.091Z,8
2022-09-28T10:34:59.465Z,10
2022-09-28T10:37:31.254Z,16
2022-09-28T10:40:02.581Z,12
2022-09-28T10:42:33.259Z,13
2022-09-28T10:45:04.809Z,10
2022-09-28T10:47:40.479Z,17
2022-09-28T10:50:11.849Z,13
2022-09-28T10:52:41.309Z,15
2022-09-28T10:55:11.996Z,13
2022-09-28T10:57:43.579Z,12
2022-09-28T11:00:14.771Z,11
2022-09-28T11:02:45.681Z,17
2022-09-28T11:05:19.380Z,12
2022-09-28T11:07:50.358Z,15
2022-09-28T11:10:20.541Z,16
2022-09-28T11:12:52.063Z,16
2022-09-28T11:15:22.802Z,15
2022-09-28T11:17:54.021Z,12
2022-09-28T11:20:31.217Z,17
2022-09-28T11:23:02.680Z,13
2022-09-28T11:25:33.880Z,19
2022-09-28T11:28:04.929Z,17
2022-09-28T11:30:36.936Z,20
2022-09-28T11:33:08.644Z,24
2022-09-28T11:35:39.287Z,21
2022-09-28T11:38:09.981Z,24
2022-09-28T11:40:40.700Z,17
2022-09-28T11:43:12.363Z,17
2022-09-28T11:45:43.828Z,25
2022-09-28T11:48:14.501Z,17
2022-09-28T11:50:43.856Z,15
2022-09-28T11:53:14.647Z,16
2022-09-28T11:55:46.001Z,19
2022-09-28T11:58:15.409Z,24
2022-09-28T12:00:46.197Z,19
2022-09-28T12:03:17.374Z,13
2022-09-28T12:05:47.961Z,16
2022-09-28T12:08:18.832Z,17
2022-09-28T12:10:50.094Z,16
2022-09-28T12:13:21.832Z,19
2022-09-28T12:16:17.395Z,17
2022-09-28T12:18:24.084Z,16
2022-09-28T12:20:55.758Z,14
2022-09-28T12:23:26.662Z,12
2022-09-28T12:26:01.107Z,12
2022-09-28T12:28:32.389Z,19
2022-09-28T12:31:03.226Z,16
2022-09-28T12:33:34.356Z,21
2022-09-28T12:36:05.368Z,19
2022-09-28T12:38:36.109Z,62
2022-09-28T12:41:07.133Z,21
2022-09-28T12:43:37.561Z,21
2022-09-28T12:46:12.211Z,15
2022-09-28T12:48:40.716Z,19
2022-09-28T12:51:11.331Z,16
2022-09-28T12:53:42.306Z,17
2022-09-28T12:56:14.778Z,16
2022-09-28T12:58:44.275Z,12
2022-09-28T13:01:15.186Z,18
2022-09-28T13:03:46.281Z,16
2022-09-28T13:06:16.878Z,19
2022-09-28T13:08:47.582Z,19
2022-09-28T13:11:18.482Z,19
2022-09-28T13:13:47.962Z,16
2022-09-28T13:16:19.015Z,15
2022-09-28T13:18:48.636Z,19
2022-09-28T13:21:19.308Z,17
2022-09-28T13:23:51.785Z,16
2022-09-28T13:26:23.267Z,20
2022-09-28T13:28:54.530Z,16
2022-09-28T13:31:26.679Z,24
2022-09-28T13:33:57.150Z,20
2022-09-28T13:36:28.532Z,25
2022-09-28T13:39:00.597Z,25
2022-09-28T13:41:31.751Z,20
2022-09-28T13:44:02.565Z,20
2022-09-28T13:46:35.153Z,24
2022-09-28T13:49:05.348Z,23
2022-09-28T13:51:36.313Z,25
2022-09-28T13:54:07.636Z,16
2022-09-28T13:56:38.618Z,19
2022-09-28T13:59:09.318Z,25
2022-09-28T14:01:40.681Z,35
2022-09-28T14:04:11.314Z,16
2022-09-28T14:06:44.053Z,16
2022-09-28T14:09:14.331Z,20
2022-09-28T14:11:45.342Z,20
2022-09-28T14:14:14.934Z,17
2022-09-28T14:16:45.605Z,23
2022-09-28T14:19:16.180Z,25
2022-09-28T14:21:47.257Z,17
2022-09-28T14:24:18.045Z,21
2022-09-28T14:26:48.869Z,21
2022-09-28T14:29:19.405Z,23
2022-09-28T14:31:49.815Z,21
2022-09-28T14:34:21.902Z,20
2022-09-28T14:36:52.645Z,25
2022-09-28T14:39:23.654Z,21
2022-09-28T14:41:54.917Z,21
2022-09-28T14:44:26.044Z,28
2022-09-28T14:46:56.776Z,23
2022-09-28T14:49:28.371Z,28
2022-09-28T14:51:59.570Z,21
2022-09-28T14:54:30.736Z,25
2022-09-28T14:57:01.347Z,24
2022-09-28T14:59:31.855Z,24
2022-09-28T15:02:02.346Z,24
2022-09-28T15:04:33.008Z,23
2022-09-28T15:07:03.314Z,24
2022-09-28T15:09:34.293Z,27
2022-09-28T15:12:05.299Z,27
2022-09-28T15:14:36.288Z,24
2022-09-28T15:17:07.330Z,25
2022-09-28T15:19:38.373Z,22
2022-09-28T15:22:09.414Z,35
2022-09-28T15:24:41.437Z,28
2022-09-28T15:27:13.850Z,25
2022-09-28T15:29:44.625Z,28
2022-09-28T15:32:15.194Z,25
2022-09-28T15:34:45.612Z,21
2022-09-28T15:37:16.522Z,24
2022-09-28T15:39:46.641Z,25
2022-09-28T15:42:17.514Z,28
2022-09-28T15:44:47.677Z,29
2022-09-28T15:47:19.107Z,28
2022-09-28T15:49:50.782Z,25
2022-09-28T15:52:21.488Z,31
2022-09-28T15:54:52.107Z,37
2022-09-28T15:57:22.519Z,34
2022-09-28T15:59:53.351Z,31
2022-09-28T16:02:24.056Z,29
2022-09-28T16:04:55.199Z,25
2022-09-28T16:07:26.264Z,28
2022-09-28T16:09:56.935Z,28
2022-09-28T16:12:28.969Z,31
2022-09-28T16:14:59.837Z,31
2022-09-28T16:17:31.143Z,27
2022-09-28T16:20:01.642Z,30
2022-09-28T16:22:32.258Z,28
2022-09-28T16:25:03.834Z,30
2022-09-28T16:27:35.528Z,31
2022-09-28T16:30:06.872Z,29
2022-09-28T16:32:37.601Z,32
2022-09-28T16:35:09.375Z,29
2022-09-28T16:37:40.316Z,31
2022-09-28T16:40:11.114Z,28
2022-09-28T16:42:40.194Z,31
2022-09-28T16:45:10.926Z,34
2022-09-28T16:47:41.573Z,32
2022-09-28T16:50:13.396Z,31
2022-09-28T16:52:44.171Z,28
2022-09-28T16:55:36.098Z,37
2022-09-28T16:57:43.869Z,35
2022-09-28T17:00:14.708Z,29
2022-09-28T17:02:47.083Z,32
2022-09-28T17:05:16.912Z,33
2022-09-28T17:07:47.624Z,32
2022-09-28T17:10:18.292Z,32
2022-09-28T17:12:49.318Z,29
2022-09-28T17:15:19.855Z,32
2022-09-28T17:17:50.584Z,32
2022-09-28T17:20:21.118Z,33
2022-09-28T17:22:50.397Z,36
2022-09-28T17:25:21.381Z,33
2022-09-28T17:27:54.281Z,32
2022-09-28T17:30:25.867Z,32
2022-09-28T17:32:56.037Z,32
2022-09-28T17:35:28.573Z,32
2022-09-28T17:37:59.457Z,28
2022-09-28T17:40:30.262Z,31
2022-09-28T17:43:00.798Z,35
2022-09-28T17:45:31.422Z,56
2022-09-28T17:48:01.932Z,33
2022-09-28T17:50:34.191Z,36
2022-09-28T17:53:03.936Z,40
2022-09-28T17:55:33.393Z,44
2022-09-28T17:58:02.467Z,36
2022-09-28T18:00:32.963Z,36
2022-09-28T18:03:03.743Z,37
2022-09-28T18:05:35.003Z,43
2022-09-28T18:08:06.175Z,44
2022-09-28T18:10:37.373Z,41
2022-09-28T18:13:08.518Z,42
2022-09-28T18:15:39.498Z,44
2022-09-28T18:18:08.611Z,44
2022-09-28T18:20:39.675Z,44
2022-09-28T18:23:10.799Z,44
2022-09-28T18:25:41.591Z,48
2022-09-28T18:28:12.276Z,48
2022-09-28T18:30:44.213Z,47
2022-09-28T18:33:15.346Z,47
2022-09-28T18:35:46.508Z,40
2022-09-28T18:38:17.854Z,45
2022-09-28T18:40:49.121Z,44
2022-09-28T18:43:20.203Z,44
2022-09-28T18:45:51.426Z,43
2022-09-28T18:48:22.076Z,44
2022-09-28T18:50:53.312Z,41
2022-09-28T18:53:24.767Z,40
2022-09-28T18:55:56.198Z,40
2022-09-28T18:58:26.491Z,44
2022-09-28T19:01:08.612Z,48
2022-09-28T19:03:28.102Z,47
2022-09-28T19:05:58.731Z,45
2022-09-28T19:08:29.663Z,44
2022-09-28T19:11:00.094Z,44
2022-09-28T19:13:30.795Z,44
2022-09-28T19:16:01.400Z,49
2022-09-28T19:18:31.915Z,48
2022-09-28T19:21:02.997Z,51
2022-09-28T19:23:34.624Z,48
2022-09-28T19:26:06.728Z,59
2022-09-28T19:28:37.801Z,55
2022-09-28T19:31:08.137Z,48
2022-09-28T19:33:38.786Z,44
2022-09-28T19:36:09.785Z,44
2022-09-28T19:38:41.018Z,43
2022-09-28T19:41:11.870Z,43
2022-09-28T19:43:43.855Z,41
2022-09-28T19:46:13.183Z,52
2022-09-28T19:48:46.589Z,40
2022-09-28T19:51:17.059Z,39
2022-09-28T19:53:47.678Z,39
2022-09-28T19:56:17.963Z,42
2022-09-28T19:58:48.395Z,41
2022-09-28T20:01:20.399Z,36
2022-09-28T20:03:51.133Z,39
2022-09-28T20:06:22.146Z,37
2022-09-28T20:08:53.046Z,40
2022-09-28T20:11:23.749Z,40
2022-09-28T20:13:54.633Z,39
2022-09-28T20:16:26.099Z,36
2022-09-28T20:18:57.078Z,33
2022-09-28T20:21:28.119Z,40
2022-09-28T20:23:59.294Z,37
2022-09-28T20:26:30.412Z,40
2022-09-28T20:29:00.028Z,37
2022-09-28T20:31:30.465Z,32
2022-09-28T20:34:01.502Z,32
2022-09-28T20:36:33.076Z,33
2022-09-28T20:39:03.860Z,28
2022-09-28T20:41:34.978Z,40
2022-09-28T20:44:06.269Z,32
2022-09-28T20:46:34.679Z,35
2022-09-28T20:49:05.037Z,27
2022-09-28T20:51:37.499Z,33
2022-09-28T20:54:08.549Z,31
2022-09-28T20:56:38.260Z,29
2022-09-28T20:59:08.751Z,33
2022-09-28T21:01:40.456Z,28
2022-09-28T21:04:11.447Z,25
2022-09-28T21:06:42.354Z,27
2022-09-28T21:09:13.923Z,25
2022-09-28T21:11:45.439Z,24
2022-09-28T21:14:15.838Z,25
2022-09-28T21:16:47.843Z,27
2022-09-28T21:19:19.183Z,25
2022-09-28T21:21:50.737Z,22
2022-09-28T21:24:21.268Z,21
2022-09-28T21:26:52.159Z,27
2022-09-28T21:29:23.200Z,27
2022-09-28T21:31:52.141Z,24
2022-09-28T21:34:23.012Z,23
2022-09-28T21:36:53.542Z,21
2022-09-28T21:39:24.984Z,19
2022-09-28T21:41:56.064Z,20
2022-09-28T21:44:26.800Z,23
2022-09-28T21:46:59.067Z,20
2022-09-28T21:49:30.042Z,19
2022-09-28T21:52:00.945Z,21
2022-09-28T21:54:31.745Z,21
2022-09-28T21:57:02.677Z,19
2022-09-28T21:59:33.981Z,21
2022-09-28T22:02:05.493Z,16
2022-09-28T22:04:36.632Z,19
2022-09-28T22:07:07.142Z,17
2022-09-28T22:09:36.591Z,22
2022-09-28T22:12:08.052Z,17
2022-09-28T22:14:39.058Z,19
2022-09-28T22:17:10.548Z,19
2022-09-28T22:19:41.763Z,24
2022-09-28T22:22:13.099Z,17
2022-09-28T22:24:44.128Z,19
2022-09-28T22:27:14.830Z,17
2022-09-28T22:29:44.828Z,19
2022-09-28T22:32:15.325Z,13
2022-09-28T22:34:45.234Z,20
2022-09-28T22:37:15.939Z,17
2022-09-28T22:39:47.695Z,16
2022-09-28T22:42:18.739Z,13
2022-09-28T22:44:49.575Z,14
2022-09-28T22:47:21.373Z,16
2022-09-28T22:49:51.914Z,13
2022-09-28T22:52:21.333Z,15
2022-09-28T22:54:53.159Z,20
2022-09-28T22:57:24.125Z,16
2022-09-28T22:59:57.008Z,16
2022-09-28T23:02:32.179Z,14
2022-09-28T23:05:03.826Z,16
2022-09-28T23:07:34.766Z,16
2022-09-28T23:10:06.271Z,15
2022-09-28T23:12:37.676Z,14
2022-09-28T23:15:08.834Z,16
2022-09-28T23:17:39.676Z,16
2022-09-28T23:20:10.784Z,19
2022-09-28T23:22:41.654Z,12
2022-09-28T23:25:13.885Z,16
2022-09-28T23:27:45.535Z,16
2022-09-28T23:30:16.768Z,14
2022-09-28T23:32:48.227Z,12
2022-09-28T23:35:19.821Z,17
2022-09-28T23:37:49.175Z,15
2022-09-28T23:40:22.030Z,16
2022-09-28T23:42:53.473Z,15
2022-09-28T23:45:26.248Z,17
2022-09-28T23:47:58.129Z,15
2022-09-28T23:50:29.438Z,16
2022-09-28T23:53:00.534Z,13
2022-09-28T23:55:30.153Z,15
2022-09-28T23:58:00.911Z,12
